createdAt,value
2018-09-04T00:02:30.236Z,1.60
2018-09-04T00:05:02.872Z,1.60
2018-09-04T00:07:35.943Z,1.60
2018-09-04T00:10:09.289Z,1.37
2018-09-04T00:12:41.767Z,1.87
2018-09-04T00:15:14.515Z,1.43
2018-09-04T00:17:47.025Z,1.40
2018-09-04T00:20:18.923Z,1.77
2018-09-04T00:22:51.975Z,1.80
2018-09-04T00:25:24.244Z,1.90
2018-09-04T00:27:57.117Z,1.40
2018-09-04T00:30:29.596Z,2.00
2018-09-04T00:33:02.090Z,1.77
2018-09-04T00:35:34.847Z,1.60
2018-09-04T00:38:07.405Z,6.10
2018-09-04T00:40:39.939Z,16.17
2018-09-04T00:43:12.265Z,1.20
2018-09-04T00:45:44.542Z,2.70
2018-09-04T00:48:17.029Z,1.00
2018-09-04T00:50:49.855Z,9.13
2018-09-04T00:53:23.116Z,1.70
2018-09-04T00:55:55.762Z,3.73
2018-09-04T00:58:28.108Z,2.13
2018-09-04T01:01:00.336Z,5.70
2018-09-04T01:03:33.111Z,1.80
2018-09-04T01:06:05.483Z,2.07
2018-09-04T01:08:37.827Z,1.60
2018-09-04T01:11:10.227Z,1.70
2018-09-04T01:13:46.123Z,1.70
2018-09-04T01:16:18.642Z,1.50
2018-09-04T01:18:51.123Z,2.17
2018-09-04T01:21:23.303Z,1.80
2018-09-04T01:23:55.485Z,1.80
2018-09-04T01:26:27.838Z,2.00
2018-09-04T01:29:00.209Z,1.60
2018-09-04T01:31:32.326Z,1.70
2018-09-04T01:34:04.292Z,2.20
2018-09-04T01:36:36.268Z,1.87
2018-09-04T01:39:09.021Z,1.90
2018-09-04T01:41:41.284Z,1.90
2018-09-04T01:44:13.532Z,1.90
2018-09-04T01:46:46.205Z,1.57
2018-09-04T01:49:18.391Z,1.80
2018-09-04T01:51:52.207Z,2.00
2018-09-04T01:54:24.651Z,1.67
2018-09-04T01:56:56.788Z,1.73
2018-09-04T01:59:28.891Z,1.70
2018-09-04T02:02:01.172Z,1.97
2018-09-04T02:04:33.443Z,1.80
2018-09-04T02:07:05.788Z,2.20
2018-09-04T02:09:37.816Z,2.23
2018-09-04T02:12:10.208Z,2.90
2018-09-04T02:14:43.092Z,2.40
2018-09-04T02:17:15.627Z,2.50
2018-09-04T02:19:48.331Z,2.37
2018-09-04T02:22:21.037Z,2.80
2018-09-04T02:24:54.586Z,2.40
2018-09-04T02:27:27.043Z,2.27
2018-09-04T02:29:59.489Z,2.20
2018-09-04T02:32:32.084Z,2.00
2018-09-04T02:35:04.545Z,2.30
2018-09-04T02:37:36.764Z,2.57
2018-09-04T02:40:09.321Z,2.70
2018-09-04T02:42:42.321Z,2.23
2018-09-04T02:45:14.684Z,2.10
2018-09-04T02:47:46.860Z,1.80
2018-09-04T02:50:19.440Z,2.10
2018-09-04T02:52:51.814Z,2.10
2018-09-04T02:55:24.178Z,2.47
2018-09-04T02:57:56.847Z,2.23
2018-09-04T03:00:29.687Z,3.43
2018-09-04T03:03:02.266Z,2.80
2018-09-04T03:05:34.700Z,2.03
2018-09-04T03:08:07.047Z,2.87
2018-09-04T03:10:39.215Z,2.43
2018-09-04T03:13:11.574Z,2.60
2018-09-04T03:15:43.971Z,2.87
2018-09-04T03:18:16.262Z,3.07
2018-09-04T03:20:48.500Z,2.70
2018-09-04T03:23:21.428Z,2.70
2018-09-04T03:25:53.587Z,2.70
2018-09-04T03:28:25.689Z,2.90
2018-09-04T03:30:58.144Z,3.50
2018-09-04T03:33:30.084Z,3.30
2018-09-04T03:36:02.253Z,2.70
2018-09-04T03:38:34.731Z,3.30
2018-09-04T03:41:07.024Z,3.00
2018-09-04T03:43:39.746Z,3.50
2018-09-04T03:46:12.189Z,2.33
2018-09-04T03:48:44.496Z,3.97
2018-09-04T03:51:17.123Z,3.60
2018-09-04T03:53:49.784Z,3.43
2018-09-04T03:56:22.328Z,3.90
2018-09-04T03:58:54.526Z,3.33
2018-09-04T04:01:26.672Z,3.30
2018-09-04T04:03:58.814Z,3.50
2018-09-04T04:06:31.094Z,3.10
2018-09-04T04:09:03.441Z,3.20
2018-09-04T04:11:35.787Z,2.97
2018-09-04T04:14:08.484Z,3.50
2018-09-04T04:16:40.912Z,4.33
2018-09-04T04:19:13.510Z,3.03
2018-09-04T04:21:46.362Z,3.37
2018-09-04T04:24:18.463Z,3.20
2018-09-04T04:26:51.018Z,3.50
2018-09-04T04:29:23.641Z,3.53
2018-09-04T04:31:55.711Z,3.50
2018-09-04T04:34:28.079Z,3.30
2018-09-04T04:37:00.654Z,3.40
2018-09-04T04:39:32.845Z,2.87
2018-09-04T04:42:05.183Z,4.00
2018-09-04T04:44:37.818Z,3.43
2018-09-04T04:47:10.941Z,3.03
2018-09-04T04:49:43.520Z,2.80
2018-09-04T04:52:15.720Z,2.93
2018-09-04T04:54:48.569Z,2.73
2018-09-04T04:57:21.162Z,3.60
2018-09-04T04:59:53.943Z,3.20
2018-09-04T05:02:26.412Z,3.80
2018-09-04T05:04:58.614Z,3.33
2018-09-04T05:07:31.172Z,3.80
2018-09-04T05:10:03.513Z,3.23
2018-09-04T05:12:36.506Z,3.70
2018-09-04T05:15:09.056Z,3.10
2018-09-04T05:17:41.606Z,3.80
2018-09-04T05:20:17.304Z,3.80
2018-09-04T05:22:49.947Z,3.60
2018-09-04T05:25:22.251Z,3.70
2018-09-04T05:27:55.257Z,3.90
2018-09-04T05:30:27.380Z,4.00
2018-09-04T05:33:04.494Z,3.70
2018-09-04T05:35:41.037Z,3.30
2018-09-04T05:38:13.839Z,3.50
2018-09-04T05:40:46.369Z,4.23
2018-09-04T05:43:22.733Z,4.20
2018-09-04T05:45:56.500Z,4.17
2018-09-04T05:48:29.225Z,3.30
2018-09-04T05:51:01.831Z,3.60
2018-09-04T05:53:34.589Z,4.07
2018-09-04T05:56:07.527Z,3.47
2018-09-04T05:58:40.032Z,3.50
2018-09-04T06:01:12.439Z,3.93
2018-09-04T06:03:45.139Z,3.80
2018-09-04T06:06:17.421Z,3.97
2018-09-04T06:08:49.988Z,4.33
2018-09-04T06:11:22.304Z,4.00
2018-09-04T06:13:54.436Z,3.90
2018-09-04T06:16:26.793Z,4.40
2018-09-04T06:18:58.975Z,3.90
2018-09-04T06:21:31.185Z,4.00
2018-09-04T06:24:04.236Z,4.03
2018-09-04T06:26:36.728Z,4.30
2018-09-04T06:29:09.333Z,3.90
2018-09-04T06:31:41.820Z,4.30
2018-09-04T06:34:14.823Z,3.93
2018-09-04T06:36:47.650Z,4.40
2018-09-04T06:39:19.935Z,4.57
2018-09-04T06:41:52.754Z,4.20
2018-09-04T06:44:25.405Z,4.20
2018-09-04T06:46:58.178Z,4.37
2018-09-04T06:49:30.774Z,4.00
2018-09-04T06:52:03.112Z,5.00
2018-09-04T06:54:36.024Z,4.30
2018-09-04T06:57:08.195Z,4.27
2018-09-04T06:59:40.620Z,5.00
2018-09-04T07:02:12.993Z,4.83
2018-09-04T07:04:45.533Z,4.30
2018-09-04T07:07:17.924Z,4.93
2018-09-04T07:09:50.403Z,5.63
2018-09-04T07:12:22.769Z,5.10
2018-09-04T07:14:55.390Z,5.07
2018-09-04T07:17:28.289Z,4.53
2018-09-04T07:20:00.052Z,4.70
2018-09-04T07:22:32.269Z,4.90
2018-09-04T07:25:04.530Z,5.20
2018-09-04T07:27:36.723Z,4.00
2018-09-04T07:30:09.374Z,4.60
2018-09-04T07:32:42.003Z,4.33
2018-09-04T07:35:14.420Z,4.07
2018-09-04T07:37:46.638Z,4.67
2018-09-04T07:40:19.026Z,4.97
2018-09-04T07:42:51.195Z,4.87
2018-09-04T07:45:23.630Z,4.47
2018-09-04T07:47:55.986Z,5.13
2018-09-04T07:50:28.706Z,4.93
2018-09-04T07:53:01.178Z,5.27
2018-09-04T07:55:33.444Z,4.13
2018-09-04T07:58:05.937Z,6.00
2018-09-04T08:00:39.327Z,5.60
2018-09-04T08:03:11.696Z,4.63
2018-09-04T08:05:44.176Z,5.23
2018-09-04T08:08:16.748Z,5.17
2018-09-04T08:10:49.312Z,5.13
2018-09-04T08:13:21.723Z,4.40
2018-09-04T08:15:53.882Z,4.53
2018-09-04T08:18:26.481Z,5.20
2018-09-04T08:20:59.262Z,5.23
2018-09-04T08:23:31.399Z,4.93
2018-09-04T08:26:03.816Z,4.80
2018-09-04T08:28:36.134Z,5.90
2018-09-04T08:31:08.639Z,5.40
2018-09-04T08:33:40.993Z,5.70
2018-09-04T08:36:13.382Z,6.40
2018-09-04T08:38:51.493Z,5.23
2018-09-04T08:41:23.826Z,4.20
2018-09-04T08:43:56.254Z,6.10
2018-09-04T08:46:28.778Z,5.90
2018-09-04T08:49:00.967Z,5.03
2018-09-04T08:51:33.158Z,5.43
2018-09-04T08:54:05.513Z,5.80
2018-09-04T08:56:37.695Z,5.13
2018-09-04T08:59:10.534Z,4.87
2018-09-04T09:01:43.260Z,6.40
2018-09-04T09:04:15.856Z,5.93
2018-09-04T09:06:48.427Z,5.17
2018-09-04T09:09:20.824Z,5.40
2018-09-04T09:11:53.003Z,5.90
2018-09-04T09:14:25.565Z,6.03
2018-09-04T09:16:57.906Z,5.00
2018-09-04T09:19:30.309Z,5.93
2018-09-04T09:22:02.456Z,6.63
2018-09-04T09:24:35.154Z,5.70
2018-09-04T09:27:07.925Z,6.07
2018-09-04T09:29:40.475Z,5.90
2018-09-04T09:32:12.875Z,5.07
2018-09-04T09:34:45.049Z,5.47
2018-09-04T09:37:17.863Z,5.63
2018-09-04T09:39:50.160Z,5.20
2018-09-04T09:42:22.199Z,6.20
2018-09-04T09:44:54.141Z,6.30
2018-09-04T09:47:25.939Z,5.47
2018-09-04T09:49:57.845Z,6.07
2018-09-04T09:52:29.671Z,5.33
2018-09-04T09:55:01.629Z,7.50
2018-09-04T09:57:33.497Z,5.93
2018-09-04T10:00:05.473Z,5.77
2018-09-04T10:02:41.851Z,6.10
2018-09-04T10:05:13.676Z,5.90
2018-09-04T10:07:45.939Z,6.20
2018-09-04T10:10:17.939Z,5.93
2018-09-04T10:12:49.870Z,5.63
2018-09-04T10:15:21.898Z,6.40
2018-09-04T10:17:53.768Z,7.27
2018-09-04T10:20:25.732Z,6.10
2018-09-04T10:22:57.709Z,6.70
2018-09-04T10:25:29.635Z,6.10
2018-09-04T10:28:01.632Z,6.50
2018-09-04T10:30:34.076Z,6.40
2018-09-04T10:33:06.208Z,6.53
2018-09-04T10:35:38.473Z,6.30
2018-09-04T10:38:10.549Z,6.87
2018-09-04T10:40:44.205Z,7.30
2018-09-04T10:43:16.366Z,6.80
2018-09-04T10:45:52.944Z,6.60
2018-09-04T10:48:26.404Z,7.03
2018-09-04T10:50:58.572Z,7.10
2018-09-04T10:53:30.733Z,7.00
2018-09-04T10:56:02.888Z,7.10
2018-09-04T10:58:34.916Z,6.30
2018-09-04T11:01:07.063Z,6.90
2018-09-04T11:03:38.946Z,7.50
2018-09-04T11:06:10.954Z,6.30
2018-09-04T11:08:43.163Z,7.33
2018-09-04T11:11:15.089Z,7.40
2018-09-04T11:13:47.084Z,7.03
2018-09-04T11:16:19.453Z,6.77
2018-09-04T11:18:51.335Z,7.13
2018-09-04T11:21:23.389Z,7.50
2018-09-04T11:23:55.265Z,6.93
2018-09-04T11:26:27.100Z,7.73
2018-09-04T11:29:02.127Z,7.67
2018-09-04T11:31:34.299Z,7.40
2018-09-04T11:34:06.421Z,7.47
2018-09-04T11:36:38.215Z,7.80
2018-09-04T11:39:12.386Z,7.27
2018-09-04T11:41:44.392Z,7.60
2018-09-04T11:44:16.320Z,7.40
2018-09-04T11:46:48.294Z,8.63
2018-09-04T11:49:21.060Z,7.20
2018-09-04T11:51:53.076Z,8.37
2018-09-04T11:54:24.988Z,7.57
2018-09-04T11:56:56.887Z,9.37
2018-09-04T11:59:29.175Z,7.27
2018-09-04T12:02:01.776Z,8.10
2018-09-04T12:04:34.202Z,8.80
2018-09-04T12:07:06.268Z,8.40
2018-09-04T12:09:38.590Z,8.10
2018-09-04T12:12:14.776Z,9.20
2018-09-04T12:14:46.616Z,8.57
2018-09-04T12:17:18.412Z,8.00
2018-09-04T12:20:11.168Z,7.63
2018-09-04T12:22:42.998Z,8.27
2018-09-04T12:25:15.195Z,8.23
2018-09-04T12:27:47.600Z,8.23
2018-09-04T12:30:19.737Z,8.53
2018-09-04T12:32:51.690Z,8.93
2018-09-04T12:35:23.677Z,8.03
2018-09-04T12:37:55.713Z,7.63
2018-09-04T12:40:27.653Z,8.40
2018-09-04T12:43:00.044Z,8.87
2018-09-04T12:45:36.310Z,9.83
2018-09-04T12:48:08.846Z,9.50
2018-09-04T12:50:41.057Z,9.87
2018-09-04T12:53:13.033Z,9.17
2018-09-04T12:55:45.185Z,8.93
2018-09-04T12:58:17.146Z,9.53
2018-09-04T13:00:50.270Z,11.07
2018-09-04T13:03:24.548Z,8.40
2018-09-04T13:05:56.621Z,11.17
2018-09-04T13:08:30.830Z,10.07
2018-09-04T13:11:02.790Z,9.20
2018-09-04T13:13:34.708Z,11.13
2018-09-04T13:16:06.805Z,10.60
2018-09-04T13:18:38.940Z,12.30
2018-09-04T13:21:10.943Z,10.23
2018-09-04T13:23:43.069Z,10.30
2018-09-04T13:26:15.276Z,10.80
2018-09-04T13:28:47.445Z,10.40
2018-09-04T13:31:19.557Z,10.40
2018-09-04T13:33:51.568Z,9.73
2018-09-04T13:36:23.738Z,10.70
2018-09-04T13:38:55.901Z,11.30
2018-09-04T13:41:31.975Z,10.00
2018-09-04T13:44:03.953Z,11.73
2018-09-04T13:46:35.899Z,10.80
2018-09-04T13:49:08.090Z,10.40
2018-09-04T13:51:40.439Z,11.50
2018-09-04T13:54:12.288Z,10.37
2018-09-04T13:56:44.140Z,12.05
2018-09-04T13:59:16.308Z,11.50
2018-09-04T14:01:48.471Z,11.93
2018-09-04T14:04:20.616Z,12.00
2018-09-04T14:06:52.575Z,11.87
2018-09-04T14:09:24.572Z,11.63
2018-09-04T14:11:56.687Z,11.57
2018-09-04T14:14:28.705Z,12.57
2018-09-04T14:17:01.171Z,11.30
2018-09-04T14:19:33.660Z,11.87
2018-09-04T14:22:05.843Z,11.67
2018-09-04T14:24:38.261Z,11.33
2018-09-04T14:27:10.623Z,10.60
2018-09-04T14:29:53.657Z,10.53
2018-09-04T14:32:15.302Z,11.97
2018-09-04T14:34:47.512Z,10.57
2018-09-04T14:37:19.947Z,12.20
2018-09-04T14:39:55.586Z,11.73
2018-09-04T14:42:24.897Z,11.27
2018-09-04T14:44:58.573Z,11.00
2018-09-04T14:47:31.083Z,11.87
2018-09-04T14:50:03.287Z,10.80
2018-09-04T14:52:35.653Z,10.57
2018-09-04T14:55:08.227Z,11.23
2018-09-04T14:57:40.357Z,10.07
2018-09-04T15:00:12.552Z,10.97
2018-09-04T15:02:44.880Z,10.57
2018-09-04T15:05:17.298Z,11.80
2018-09-04T15:07:50.022Z,10.43
2018-09-04T15:10:22.333Z,10.20
2018-09-04T15:12:54.624Z,11.70
2018-09-04T15:15:26.945Z,12.40
2018-09-04T15:17:59.495Z,10.17
2018-09-04T15:20:31.563Z,11.07
2018-09-04T15:23:03.726Z,11.27
2018-09-04T15:25:36.622Z,10.83
2018-09-04T15:28:09.300Z,10.43
2018-09-04T15:30:42.560Z,9.27
2018-09-04T15:33:14.911Z,10.27
2018-09-04T15:35:47.293Z,11.10
2018-09-04T15:38:19.637Z,11.37
2018-09-04T15:40:52.051Z,9.93
2018-09-04T15:43:24.379Z,9.90
2018-09-04T15:45:56.608Z,9.80
2018-09-04T15:48:28.896Z,9.67
2018-09-04T15:51:01.254Z,9.60
2018-09-04T15:53:33.394Z,8.10
2018-09-04T15:56:05.881Z,7.60
2018-09-04T15:58:38.177Z,8.97
2018-09-04T16:01:10.801Z,7.93
2018-09-04T16:03:42.951Z,7.73
2018-09-04T16:06:15.238Z,8.23
2018-09-04T16:08:47.388Z,8.40
2018-09-04T16:11:19.758Z,6.50
2018-09-04T16:13:52.162Z,7.60
2018-09-04T16:16:24.398Z,8.50
2018-09-04T16:18:56.777Z,7.10
2018-09-04T16:21:29.378Z,7.53
2018-09-04T16:24:01.705Z,7.97
2018-09-04T16:26:34.125Z,6.90
2018-09-04T16:29:06.310Z,7.87
2018-09-04T16:31:38.636Z,8.47
2018-09-04T16:34:11.063Z,7.10
2018-09-04T16:36:43.192Z,9.33
2018-09-04T16:39:16.478Z,7.20
2018-09-04T16:41:48.732Z,8.13
2018-09-04T16:44:20.887Z,6.80
2018-09-04T16:46:53.220Z,7.97
2018-09-04T16:49:28.300Z,8.33
2018-09-04T16:52:01.920Z,7.73
2018-09-04T16:54:34.529Z,7.50
2018-09-04T16:57:06.783Z,7.87
2018-09-04T16:59:39.501Z,7.70
2018-09-04T17:02:11.753Z,8.70
2018-09-04T17:04:44.040Z,7.50
2018-09-04T17:07:16.249Z,8.27
2018-09-04T17:09:48.558Z,7.53
2018-09-04T17:12:21.156Z,7.87
2018-09-04T17:14:53.509Z,7.63
2018-09-04T17:17:25.908Z,7.57
2018-09-04T17:19:58.061Z,7.17
2018-09-04T17:22:30.427Z,8.50
2018-09-04T17:25:02.971Z,7.20
2018-09-04T17:27:35.204Z,6.67
2018-09-04T17:30:07.800Z,7.80
2018-09-04T17:32:40.168Z,8.43
2018-09-04T17:35:12.501Z,7.03
2018-09-04T17:37:44.707Z,6.80
2018-09-04T17:40:17.038Z,6.80
2018-09-04T17:42:50.225Z,7.53
2018-09-04T17:45:22.618Z,7.03
2018-09-04T17:47:55.214Z,7.77
2018-09-04T17:50:27.842Z,8.10
2018-09-04T17:53:00.060Z,8.20
2018-09-04T17:55:32.192Z,8.10
2018-09-04T17:58:04.888Z,8.17
2018-09-04T18:00:37.312Z,7.73
2018-09-04T18:03:09.863Z,8.50
2018-09-04T18:05:42.286Z,7.50
2018-09-04T18:08:14.345Z,7.97
2018-09-04T18:10:46.744Z,8.33
2018-09-04T18:13:18.916Z,7.93
2018-09-04T18:15:51.301Z,7.53
2018-09-04T18:18:23.493Z,6.70
2018-09-04T18:20:56.069Z,7.20
2018-09-04T18:23:28.442Z,6.57
2018-09-04T18:26:00.728Z,6.77
2018-09-04T18:28:32.832Z,6.67
2018-09-04T18:31:05.641Z,7.57
2018-09-04T18:33:38.155Z,6.30
2018-09-04T18:36:10.609Z,7.10
2018-09-04T18:38:43.396Z,7.10
2018-09-04T18:41:15.507Z,6.70
2018-09-04T18:43:47.925Z,5.83
2018-09-04T18:46:20.284Z,6.50
2018-09-04T18:48:55.619Z,6.37
2018-09-04T18:51:28.053Z,6.10
2018-09-04T18:54:00.631Z,5.90
2018-09-04T18:56:33.202Z,6.30
2018-09-04T18:59:05.631Z,6.20
2018-09-04T19:01:38.185Z,6.57
2018-09-04T19:04:10.735Z,6.60
2018-09-04T19:06:43.347Z,6.27
2018-09-04T19:09:15.464Z,6.83
2018-09-04T19:11:47.856Z,6.73
2018-09-04T19:14:20.060Z,6.80
2018-09-04T19:16:52.477Z,6.07
2018-09-04T19:19:24.750Z,6.40
2018-09-04T19:21:57.120Z,6.20
2018-09-04T19:24:29.871Z,6.30
2018-09-04T19:27:02.106Z,6.70
2018-09-04T19:29:34.432Z,7.07
2018-09-04T19:32:06.825Z,7.00
2018-09-04T19:34:39.364Z,6.23
2018-09-04T19:37:11.893Z,6.40
2018-09-04T19:39:44.088Z,6.90
2018-09-04T19:42:16.524Z,6.63
2018-09-04T19:44:49.008Z,6.67
2018-09-04T19:47:21.579Z,7.57
2018-09-04T19:49:54.346Z,6.70
2018-09-04T19:52:26.771Z,6.77
2018-09-04T19:54:58.909Z,7.80
2018-09-04T19:57:31.338Z,7.17
2018-09-04T20:00:03.806Z,7.50
2018-09-04T20:02:35.870Z,6.77
2018-09-04T20:05:08.943Z,7.30
2018-09-04T20:07:41.388Z,7.53
2018-09-04T20:10:13.433Z,7.07
2018-09-04T20:12:45.956Z,6.67
2018-09-04T20:15:17.938Z,6.40
2018-09-04T20:17:51.172Z,6.43
2018-09-04T20:20:23.513Z,6.17
2018-09-04T20:22:56.092Z,6.17
2018-09-04T20:25:28.489Z,6.80
2018-09-04T20:28:00.792Z,6.70
2018-09-04T20:30:33.113Z,6.80
2018-09-04T20:33:05.545Z,6.50
2018-09-04T20:35:38.074Z,6.33
2018-09-04T20:38:10.252Z,7.07
2018-09-04T20:40:42.576Z,7.30
2018-09-04T20:43:15.241Z,7.07
2018-09-04T20:45:47.528Z,6.77
2018-09-04T20:48:19.864Z,7.70
2018-09-04T20:50:52.667Z,7.27
2018-09-04T20:53:25.290Z,5.80
2018-09-04T20:55:57.671Z,7.50
2018-09-04T20:58:39.432Z,7.03
2018-09-04T21:01:20.648Z,6.80
2018-09-04T21:04:02.390Z,6.90
2018-09-04T21:06:45.684Z,7.90
2018-09-04T21:09:30.291Z,6.57
2018-09-04T21:12:02.927Z,6.90
2018-09-04T21:14:35.757Z,7.07
2018-09-04T21:17:08.114Z,7.93
2018-09-04T21:19:40.589Z,7.67
2018-09-04T21:22:12.990Z,7.40
2018-09-04T21:24:45.360Z,6.77
2018-09-04T21:27:17.509Z,7.57
2018-09-04T21:29:50.083Z,7.30
2018-09-04T21:32:23.070Z,6.83
2018-09-04T21:34:55.561Z,6.90
2018-09-04T21:37:27.746Z,6.43
2018-09-04T21:40:00.280Z,6.80
2018-09-04T21:42:32.854Z,6.73
2018-09-04T21:45:05.546Z,6.27
2018-09-04T21:47:38.015Z,7.00
2018-09-04T21:50:10.758Z,7.60
2018-09-04T21:52:43.193Z,7.20
2018-09-04T21:55:15.998Z,6.60
2018-09-04T21:57:48.937Z,6.70
2018-09-04T22:00:26.595Z,6.80
2018-09-04T22:02:59.644Z,6.90
2018-09-04T22:05:32.180Z,8.13
2018-09-04T22:08:04.569Z,7.20
2018-09-04T22:10:36.907Z,6.93
2018-09-04T22:13:10.374Z,6.80
2018-09-04T22:15:42.783Z,7.30
2018-09-04T22:18:15.061Z,6.60
2018-09-04T22:20:47.538Z,6.77
2018-09-04T22:23:19.843Z,7.03
2018-09-04T22:25:52.813Z,7.07
2018-09-04T22:28:25.311Z,7.73
2018-09-04T22:30:57.538Z,7.10
2018-09-04T22:33:30.816Z,7.77
2018-09-04T22:36:03.526Z,7.47
2018-09-04T22:38:35.876Z,7.57
2018-09-04T22:41:08.548Z,7.30
2018-09-04T22:43:40.620Z,7.97
2018-09-04T22:46:13.040Z,7.07
2018-09-04T22:48:45.362Z,7.07
2018-09-04T22:51:22.544Z,6.90
2018-09-04T22:53:54.779Z,7.50
2018-09-04T22:56:27.635Z,7.23
2018-09-04T22:59:00.358Z,7.70
2018-09-04T23:01:33.000Z,7.50
2018-09-04T23:04:05.581Z,6.00
2018-09-04T23:06:37.960Z,6.87
2018-09-04T23:09:10.614Z,7.17
2018-09-04T23:11:42.847Z,6.80
2018-09-04T23:14:15.364Z,6.97
2018-09-04T23:16:47.784Z,7.00
2018-09-04T23:19:20.176Z,7.00
2018-09-04T23:21:52.716Z,6.57
2018-09-04T23:24:25.097Z,6.90
2018-09-04T23:26:57.716Z,7.60
2018-09-04T23:29:30.066Z,7.40
2018-09-04T23:32:02.829Z,6.10
2018-09-04T23:34:36.109Z,6.80
2018-09-04T23:37:08.405Z,6.47
2018-09-04T23:39:40.604Z,7.40
2018-09-04T23:42:13.153Z,6.43
2018-09-04T23:44:45.542Z,7.30
2018-09-04T23:47:17.704Z,6.03
2018-09-04T23:49:50.436Z,6.60
2018-09-04T23:52:22.528Z,6.80
2018-09-04T23:54:55.027Z,7.10
2018-09-04T23:57:27.690Z,5.77
